Time;durP1;ratioP1;P1;durP2;ratioP2;P2;SDS_P1;SDS_P2;PMS_P1;PMS_P2;Temp;Humidity;BMP_temperature;BMP_pressure;BME280_temperature;BME280_humidity;BME280_pressure;Samples;Min_cycle;Max_cycle;Signal;HPM_P1;HPM_P2
2022/11/07 00:00:31;;;;;;;;;;;10.80;99.90;;;;;;5156631;27;19907;-38
2022/11/07 00:02:56;;;;;;;;;;;10.90;99.90;;;;;;5156702;27;20306;-42
2022/11/07 00:05:22;;;;;;;;;;;10.90;99.90;;;;;;5155769;27;19907;-38
2022/11/07 00:07:47;;;;;;;;;;;11.00;99.90;;;;;;5156663;27;19933;-37
2022/11/07 00:10:13;;;;;;;;;;;11.00;99.90;;;;;;5156381;27;19907;-38
2022/11/07 00:12:38;;;;;;;;;;;11.00;99.90;;;;;;5155684;27;19907;-40
2022/11/07 00:15:04;;;;;;;;;;;11.00;99.90;;;;;;5156377;27;19923;-37
2022/11/07 00:17:30;;;;;;;;;;;11.00;99.90;;;;;;5155968;27;19910;-39
2022/11/07 00:19:55;;;;;;;;;;;11.00;99.90;;;;;;5154524;27;20305;-38
2022/11/07 00:22:21;;;;;;;;;;;11.10;99.90;;;;;;5155917;27;19925;-40
2022/11/07 00:24:46;;;;;;;;;;;11.10;99.90;;;;;;5155489;27;20265;-38
2022/11/07 00:27:11;;;;;;;;;;;11.20;99.90;;;;;;5156026;27;19951;-37
2022/11/07 00:29:37;;;;;;;;;;;11.20;99.90;;;;;;5156089;27;19946;-38
2022/11/07 00:32:02;;;;;;;;;;;11.30;99.90;;;;;;5155265;27;19907;-39
2022/11/07 00:34:28;;;;;;;;;;;11.20;99.90;;;;;;5155896;27;19933;-38
2022/11/07 00:36:53;;;;;;;;;;;11.30;99.90;;;;;;5155657;27;19914;-37
2022/11/07 00:39:19;;;;;;;;;;;11.30;99.90;;;;;;5154447;27;20010;-39
2022/11/07 00:41:46;;;;;;;;;;;11.30;99.90;;;;;;5155845;27;20478;-37
2022/11/07 00:44:12;;;;;;;;;;;11.40;99.90;;;;;;5154964;27;19950;-36
2022/11/07 00:46:37;;;;;;;;;;;11.30;99.90;;;;;;5154733;27;20353;-38
2022/11/07 00:49:03;;;;;;;;;;;11.30;99.90;;;;;;5155720;27;19907;-41
2022/11/07 00:51:28;;;;;;;;;;;11.40;99.90;;;;;;5155640;27;19915;-38
2022/11/07 00:53:54;;;;;;;;;;;11.40;99.90;;;;;;5154901;27;20404;-37
2022/11/07 00:56:21;;;;;;;;;;;11.40;99.90;;;;;;5155389;27;19915;-39
2022/11/07 00:58:46;;;;;;;;;;;11.50;99.90;;;;;;5155581;27;20003;-38
2022/11/07 01:01:16;;;;;;;;;;;11.40;99.90;;;;;;5154624;27;19935;-39
2022/11/07 01:06:28;;;;;;;;;;;11.40;99.90;;;;;;5155713;27;19915;-38
2022/11/07 01:08:55;;;;;;;;;;;11.30;99.90;;;;;;5154588;27;19915;-38
2022/11/07 01:11:21;;;;;;;;;;;11.30;99.90;;;;;;5155268;27;20059;-36
2022/11/07 01:13:46;;;;;;;;;;;11.30;99.90;;;;;;5154627;27;19911;-37
2022/11/07 01:16:12;;;;;;;;;;;11.30;99.90;;;;;;5154263;27;19921;-37
2022/11/07 01:18:37;;;;;;;;;;;11.30;99.90;;;;;;5155150;27;19911;-37
2022/11/07 01:21:04;;;;;;;;;;;11.30;99.90;;;;;;5154213;27;20277;-38
2022/11/07 01:23:30;;;;;;;;;;;11.40;99.90;;;;;;5154882;27;19907;-38
2022/11/07 01:25:55;;;;;;;;;;;11.40;99.90;;;;;;5155063;27;19959;-37
2022/11/07 01:28:20;;;;;;;;;;;11.40;99.90;;;;;;5154338;27;19907;-42
2022/11/07 01:30:46;;;;;;;;;;;11.40;99.90;;;;;;5155022;27;19911;-37
2022/11/07 01:33:11;;;;;;;;;;;11.40;99.90;;;;;;5154810;27;19907;-38
2022/11/07 01:35:37;;;;;;;;;;;11.30;99.90;;;;;;5153981;27;19922;-37
2022/11/07 01:38:03;;;;;;;;;;;11.30;99.90;;;;;;5154790;27;20369;-37
2022/11/07 01:40:28;;;;;;;;;;;11.40;99.90;;;;;;5154718;27;19915;-38
2022/11/07 01:42:53;;;;;;;;;;;11.40;99.90;;;;;;5153678;27;19926;-37
2022/11/07 01:45:22;;;;;;;;;;;11.40;99.90;;;;;;5154092;27;19912;-38
2022/11/07 01:47:48;;;;;;;;;;;11.40;99.90;;;;;;5154752;27;19911;-38
2022/11/07 01:50:14;;;;;;;;;;;11.40;99.90;;;;;;5153000;27;19910;-37
2022/11/07 01:52:42;;;;;;;;;;;11.40;99.90;;;;;;5154597;27;20380;-37
2022/11/07 01:55:22;;;;;;;;;;;11.40;99.90;;;;;;5154490;27;19945;-38
2022/11/07 01:57:53;;;;;;;;;;;11.50;99.90;;;;;;5154000;27;19907;-38
2022/11/07 02:00:20;;;;;;;;;;;11.50;99.90;;;;;;5154467;27;20358;-37
2022/11/07 02:02:46;;;;;;;;;;;11.50;99.90;;;;;;5154381;27;19944;-37
2022/11/07 02:05:16;;;;;;;;;;;11.50;99.90;;;;;;5153675;27;19907;-37
2022/11/07 02:07:42;;;;;;;;;;;11.60;99.90;;;;;;5154507;27;19907;-37
2022/11/07 02:10:08;;;;;;;;;;;11.60;99.90;;;;;;5153900;27;20001;-44
2022/11/07 02:12:33;;;;;;;;;;;11.60;99.90;;;;;;5154022;27;19919;-37
2022/11/07 02:15:00;;;;;;;;;;;11.60;99.90;;;;;;5154320;27;20311;-38
2022/11/07 02:17:25;;;;;;;;;;;11.70;99.90;;;;;;5153003;27;19969;-37
2022/11/07 02:19:52;;;;;;;;;;;11.70;99.90;;;;;;5154338;27;19942;-41
2022/11/07 02:22:30;;;;;;;;;;;11.70;99.90;;;;;;5154164;27;19907;-39
2022/11/07 02:24:57;;;;;;;;;;;11.70;99.90;;;;;;5153610;27;19911;-38
2022/11/07 02:27:24;;;;;;;;;;;11.70;99.90;;;;;;5153269;27;19918;-37
2022/11/07 02:29:53;;;;;;;;;;;11.70;99.90;;;;;;5154232;27;19907;-38
2022/11/07 02:32:18;;;;;;;;;;;11.70;99.90;;;;;;5153346;27;19993;-38
2022/11/07 02:34:44;;;;;;;;;;;11.70;99.90;;;;;;5154131;27;20343;-37
2022/11/07 02:37:18;;;;;;;;;;;11.70;99.90;;;;;;5154179;27;19918;-38
2022/11/07 02:39:43;;;;;;;;;;;11.70;99.90;;;;;;5153474;27;20365;-37
2022/11/07 02:42:09;;;;;;;;;;;11.70;99.90;;;;;;5154411;27;20009;-40
2022/11/07 02:44:34;;;;;;;;;;;11.70;99.90;;;;;;5153486;27;20310;-37
2022/11/07 02:47:00;;;;;;;;;;;11.70;99.90;;;;;;5153327;27;19911;-38
2022/11/07 02:49:25;;;;;;;;;;;11.80;99.90;;;;;;5154068;27;19950;-37
2022/11/07 02:51:51;;;;;;;;;;;11.80;99.90;;;;;;5154037;27;19914;-38
2022/11/07 02:54:16;;;;;;;;;;;11.80;99.90;;;;;;5153001;27;19907;-38
2022/11/07 02:56:42;;;;;;;;;;;11.80;99.90;;;;;;5154044;27;19990;-38
2022/11/07 02:59:07;;;;;;;;;;;11.80;99.90;;;;;;5153846;27;20323;-37
2022/11/07 03:01:32;;;;;;;;;;;11.80;99.90;;;;;;5155842;27;19918;-38
2022/11/07 03:03:58;;;;;;;;;;;11.80;99.90;;;;;;5157951;27;19911;-39
2022/11/07 03:06:24;;;;;;;;;;;11.80;99.90;;;;;;5157243;27;19913;-43
2022/11/07 03:08:50;;;;;;;;;;;11.80;99.90;;;;;;5157649;27;19907;-38
2022/11/07 03:11:18;;;;;;;;;;;11.80;99.90;;;;;;5157666;27;19907;-38
2022/11/07 03:13:45;;;;;;;;;;;11.80;99.90;;;;;;5156401;27;19954;-38
2022/11/07 03:16:10;;;;;;;;;;;11.80;99.90;;;;;;5157437;27;20376;-39
2022/11/07 03:18:36;;;;;;;;;;;11.80;99.90;;;;;;5157575;27;19907;-39
2022/11/07 03:21:02;;;;;;;;;;;11.80;99.90;;;;;;5156720;27;19908;-38
2022/11/07 03:23:28;;;;;;;;;;;11.70;99.90;;;;;;5156881;27;19990;-39
2022/11/07 03:25:53;;;;;;;;;;;11.70;99.90;;;;;;5157630;27;19943;-38
2022/11/07 03:28:19;;;;;;;;;;;11.70;99.90;;;;;;5156468;27;19911;-40
2022/11/07 03:30:44;;;;;;;;;;;11.60;99.90;;;;;;5157342;27;19907;-38
2022/11/07 03:33:10;;;;;;;;;;;11.60;99.90;;;;;;5157298;27;19907;-37
2022/11/07 03:35:35;;;;;;;;;;;11.50;99.90;;;;;;5156551;27;19915;-38
2022/11/07 03:38:01;;;;;;;;;;;11.40;99.90;;;;;;5157181;27;20015;-41
2022/11/07 03:40:26;;;;;;;;;;;11.40;99.90;;;;;;5157054;27;19908;-37
2022/11/07 03:42:52;;;;;;;;;;;11.30;99.90;;;;;;5155692;27;19919;-38
2022/11/07 03:45:17;;;;;;;;;;;11.30;99.90;;;;;;5157210;27;19964;-37
2022/11/07 03:47:44;;;;;;;;;;;11.30;99.90;;;;;;5157073;27;19907;-41
2022/11/07 03:50:11;;;;;;;;;;;11.30;99.90;;;;;;5156044;27;19911;-37
2022/11/07 03:52:37;;;;;;;;;;;11.30;99.90;;;;;;5157014;27;19911;-42
2022/11/07 03:55:02;;;;;;;;;;;11.40;99.90;;;;;;5156893;27;19956;-37
2022/11/07 03:57:28;;;;;;;;;;;11.40;99.90;;;;;;5155840;27;20419;-37
2022/11/07 03:59:53;;;;;;;;;;;11.40;99.90;;;;;;5156734;27;20269;-39
2022/11/07 04:02:19;;;;;;;;;;;11.40;99.90;;;;;;5156552;27;19911;-40
2022/11/07 04:04:44;;;;;;;;;;;11.40;99.90;;;;;;5155907;27;19915;-38
2022/11/07 04:07:10;;;;;;;;;;;11.40;99.90;;;;;;5156658;27;20326;-39
2022/11/07 04:09:35;;;;;;;;;;;11.40;99.90;;;;;;5156574;27;19997;-40
2022/11/07 04:17:29;;;;;;;;;;;11.60;99.90;;;;;;5155414;27;19939;-38
2022/11/07 04:19:55;;;;;;;;;;;11.60;99.90;;;;;;5156428;27;20001;-38
2022/11/07 04:22:21;;;;;;;;;;;11.60;99.90;;;;;;5156258;27;19911;-37
2022/11/07 04:24:47;;;;;;;;;;;11.60;99.90;;;;;;5155490;27;19914;-38
2022/11/07 04:29:57;;;;;;;;;;;11.60;99.90;;;;;;5156271;27;19914;-37
2022/11/07 04:32:23;;;;;;;;;;;11.60;99.90;;;;;;5155107;27;19907;-41
2022/11/07 04:34:49;;;;;;;;;;;11.60;99.90;;;;;;5155249;27;19919;-43
2022/11/07 04:37:15;;;;;;;;;;;11.60;99.90;;;;;;5155835;27;19911;-38
2022/11/07 04:39:40;;;;;;;;;;;11.60;99.90;;;;;;5155107;27;19959;-38
2022/11/07 04:42:05;;;;;;;;;;;11.60;99.90;;;;;;5155910;27;19999;-39
2022/11/07 04:44:31;;;;;;;;;;;11.60;99.90;;;;;;5155468;27;19919;-38
2022/11/07 04:46:56;;;;;;;;;;;11.60;99.90;;;;;;5154878;27;20380;-39
2022/11/07 04:49:22;;;;;;;;;;;11.60;99.90;;;;;;5155712;27;19907;-39
2022/11/07 04:51:47;;;;;;;;;;;11.60;99.90;;;;;;5155461;27;20463;-38
2022/11/07 04:54:13;;;;;;;;;;;11.50;99.90;;;;;;5154916;27;19908;-40
2022/11/07 04:56:39;;;;;;;;;;;11.60;99.90;;;;;;5155408;27;19919;-38
2022/11/07 04:59:04;;;;;;;;;;;11.60;99.90;;;;;;5154785;27;19907;-39
2022/11/07 05:01:30;;;;;;;;;;;11.60;99.90;;;;;;5155283;27;20307;-38
2022/11/07 05:03:55;;;;;;;;;;;11.60;99.90;;;;;;5155500;27;20387;-39
2022/11/07 05:06:22;;;;;;;;;;;11.60;99.90;;;;;;5154590;27;20365;-38
2022/11/07 05:08:47;;;;;;;;;;;11.50;99.90;;;;;;5155484;27;19911;-40
2022/11/07 05:11:13;;;;;;;;;;;11.50;99.90;;;;;;5154871;27;20002;-38
2022/11/07 05:13:38;;;;;;;;;;;11.50;99.90;;;;;;5154526;27;20353;-38
2022/11/07 05:16:04;;;;;;;;;;;11.50;99.90;;;;;;5155228;27;19915;-37
2022/11/07 05:18:29;;;;;;;;;;;11.50;99.90;;;;;;5155158;27;19961;-38
2022/11/07 05:20:55;;;;;;;;;;;11.40;99.90;;;;;;5154275;27;19914;-40
2022/11/07 05:23:21;;;;;;;;;;;11.40;99.90;;;;;;5154986;27;19907;-38
2022/11/07 05:25:50;;;;;;;;;;;11.30;99.90;;;;;;5155173;27;20397;-37
2022/11/07 05:28:17;;;;;;;;;;;11.30;99.90;;;;;;5154148;27;19957;-37
2022/11/07 05:30:43;;;;;;;;;;;11.40;99.90;;;;;;5154707;27;19926;-37
2022/11/07 05:33:09;;;;;;;;;;;11.40;99.90;;;;;;5154946;27;19907;-39
2022/11/07 05:35:35;;;;;;;;;;;11.40;99.90;;;;;;5154124;27;20386;-41
2022/11/07 05:38:00;;;;;;;;;;;11.30;99.90;;;;;;5154943;27;20010;-38
2022/11/07 05:40:26;;;;;;;;;;;11.40;99.90;;;;;;5154907;27;20315;-38
2022/11/07 05:42:51;;;;;;;;;;;11.40;99.90;;;;;;5153830;27;20274;-39
2022/11/07 05:45:17;;;;;;;;;;;11.40;99.90;;;;;;5154702;27;19914;-37
2022/11/07 05:47:42;;;;;;;;;;;11.40;99.90;;;;;;5154701;27;19954;-38
2022/11/07 05:50:08;;;;;;;;;;;11.40;99.90;;;;;;5154034;27;19956;-40
2022/11/07 05:52:33;;;;;;;;;;;11.40;99.90;;;;;;5154536;27;19907;-40
2022/11/07 05:54:59;;;;;;;;;;;11.30;99.90;;;;;;5154613;27;19919;-38
2022/11/07 05:57:24;;;;;;;;;;;11.30;99.90;;;;;;5153756;27;19915;-38
2022/11/07 05:59:50;;;;;;;;;;;11.30;99.90;;;;;;5154641;27;20010;-38
2022/11/07 06:02:15;;;;;;;;;;;11.30;99.90;;;;;;5153301;27;20353;-40
2022/11/07 06:04:40;;;;;;;;;;;11.40;99.90;;;;;;5154443;27;19907;-37
2022/11/07 06:07:06;;;;;;;;;;;11.40;99.90;;;;;;5154476;27;20362;-38
2022/11/07 06:09:31;;;;;;;;;;;11.40;99.90;;;;;;5153139;27;19915;-39
2022/11/07 06:11:57;;;;;;;;;;;11.40;99.90;;;;;;5154207;27;19953;-37
2022/11/07 06:14:22;;;;;;;;;;;11.40;99.90;;;;;;5154213;27;19907;-39
2022/11/07 06:16:48;;;;;;;;;;;11.40;99.90;;;;;;5153977;27;20371;-38
2022/11/07 06:19:13;;;;;;;;;;;11.50;99.90;;;;;;5154176;27;19907;-38
2022/11/07 06:21:39;;;;;;;;;;;11.50;99.90;;;;;;5154237;27;19917;-38
2022/11/07 06:24:04;;;;;;;;;;;11.50;99.90;;;;;;5153449;27;20263;-39
2022/11/07 06:26:30;;;;;;;;;;;11.50;99.90;;;;;;5154193;27;19952;-40
2022/11/07 06:28:55;;;;;;;;;;;11.50;99.90;;;;;;5154209;27;19907;-38
2022/11/07 06:31:21;;;;;;;;;;;11.60;99.90;;;;;;5153131;27;20010;-38
2022/11/07 06:33:50;;;;;;;;;;;11.50;99.90;;;;;;5154075;27;19907;-40
2022/11/07 06:36:15;;;;;;;;;;;11.50;99.90;;;;;;5156905;27;19921;-37
2022/11/07 06:38:41;;;;;;;;;;;11.60;99.90;;;;;;5157674;27;19907;-41
2022/11/07 06:41:08;;;;;;;;;;;11.50;99.90;;;;;;5158021;27;19911;-37
2022/11/07 06:43:33;;;;;;;;;;;11.50;99.90;;;;;;5157672;27;20283;-39
2022/11/07 06:46:06;;;;;;;;;;;11.40;99.90;;;;;;5157463;27;19915;-37
2022/11/07 06:48:31;;;;;;;;;;;11.40;99.90;;;;;;5158139;27;20277;-40
2022/11/07 06:50:58;;;;;;;;;;;11.40;99.90;;;;;;5158076;27;19907;-40
2022/11/07 06:53:23;;;;;;;;;;;11.40;99.90;;;;;;5157256;27;20384;-37
2022/11/07 06:55:49;;;;;;;;;;;11.30;99.90;;;;;;5157926;27;19919;-37
2022/11/07 06:58:14;;;;;;;;;;;11.30;99.90;;;;;;5157846;27;19908;-39
2022/11/07 07:00:40;;;;;;;;;;;11.30;99.90;;;;;;5156666;27;20003;-38
2022/11/07 07:03:05;;;;;;;;;;;11.30;99.90;;;;;;5157370;27;20269;-37
2022/11/07 07:05:31;;;;;;;;;;;11.30;99.90;;;;;;5157337;27;19951;-43
2022/11/07 07:07:57;;;;;;;;;;;11.30;99.90;;;;;;5157382;27;20006;-38
2022/11/07 07:10:23;;;;;;;;;;;11.30;99.90;;;;;;5157238;27;20002;-38
2022/11/07 07:12:49;;;;;;;;;;;11.40;99.90;;;;;;5156023;27;20464;-39
2022/11/07 07:15:14;;;;;;;;;;;11.40;99.90;;;;;;5157655;27;20001;-37
2022/11/07 07:17:40;;;;;;;;;;;11.40;99.90;;;;;;5157519;27;20358;-38
2022/11/07 07:20:06;;;;;;;;;;;11.40;99.90;;;;;;5156876;27;19913;-38
2022/11/07 07:22:31;;;;;;;;;;;11.40;99.90;;;;;;5157558;27;20345;-40
2022/11/07 07:24:57;;;;;;;;;;;11.40;99.90;;;;;;5156788;27;19915;-38
2022/11/07 07:27:22;;;;;;;;;;;11.50;99.90;;;;;;5156465;27;19911;-38
2022/11/07 07:29:48;;;;;;;;;;;11.50;99.90;;;;;;5157125;27;20409;-39
2022/11/07 07:32:14;;;;;;;;;;;11.50;99.90;;;;;;5156598;27;19914;-38
2022/11/07 07:34:39;;;;;;;;;;;11.60;99.90;;;;;;5156027;27;19911;-38
2022/11/07 07:37:05;;;;;;;;;;;11.60;99.90;;;;;;5157252;27;19957;-42
2022/11/07 07:39:30;;;;;;;;;;;11.60;99.90;;;;;;5157045;27;20374;-38
2022/11/07 07:41:56;;;;;;;;;;;11.70;99.90;;;;;;5156038;27;19908;-38
2022/11/07 07:44:21;;;;;;;;;;;11.70;99.90;;;;;;5156688;27;19926;-40
2022/11/07 07:46:47;;;;;;;;;;;11.80;99.90;;;;;;5155499;27;19915;-36
2022/11/07 07:49:12;;;;;;;;;;;11.80;99.90;;;;;;5156077;27;20380;-38
2022/11/07 07:51:37;;;;;;;;;;;11.80;99.90;;;;;;5156670;27;19907;-39
2022/11/07 07:54:03;;;;;;;;;;;11.90;99.90;;;;;;5156121;27;19911;-40
2022/11/07 07:56:28;;;;;;;;;;;11.90;99.90;;;;;;5155653;27;19971;-38
2022/11/07 07:58:54;;;;;;;;;;;11.90;99.90;;;;;;5156835;27;20294;-39
2022/11/07 08:01:19;;;;;;;;;;;11.90;99.90;;;;;;5156336;27;19917;-39
2022/11/07 08:03:45;;;;;;;;;;;12.00;99.90;;;;;;5156014;27;20289;-37
2022/11/07 08:06:10;;;;;;;;;;;11.90;99.90;;;;;;5156672;27;20377;-38
2022/11/07 08:08:36;;;;;;;;;;;12.00;99.90;;;;;;5155586;27;20333;-39
2022/11/07 08:11:02;;;;;;;;;;;12.00;99.90;;;;;;5155776;27;19914;-40
2022/11/07 08:13:28;;;;;;;;;;;12.00;99.90;;;;;;5156239;27;20006;-38
2022/11/07 08:15:54;;;;;;;;;;;12.00;99.90;;;;;;5155552;27;20002;-38
2022/11/07 08:18:20;;;;;;;;;;;12.10;99.90;;;;;;5156136;27;19915;-40
2022/11/07 08:20:48;;;;;;;;;;;12.10;99.90;;;;;;5156486;27;19961;-38
2022/11/07 08:23:14;;;;;;;;;;;12.20;99.90;;;;;;5155533;27;19911;-38
2022/11/07 08:25:39;;;;;;;;;;;12.10;99.90;;;;;;5156016;27;19994;-38
2022/11/07 08:28:07;;;;;;;;;;;12.20;99.90;;;;;;5156283;27;19907;-37
2022/11/07 08:30:32;;;;;;;;;;;12.30;99.90;;;;;;5154999;27;19915;-38
2022/11/07 08:32:59;;;;;;;;;;;12.30;99.90;;;;;;5156011;27;19998;-38
2022/11/07 08:35:24;;;;;;;;;;;12.30;99.90;;;;;;5155948;27;19918;-39
2022/11/07 08:37:53;;;;;;;;;;;12.30;99.90;;;;;;5155288;27;19911;-38
2022/11/07 08:40:19;;;;;;;;;;;12.40;99.90;;;;;;5155907;27;19914;-38
2022/11/07 08:42:44;;;;;;;;;;;12.40;99.90;;;;;;5155690;27;19907;-38
2022/11/07 08:45:10;;;;;;;;;;;12.40;99.90;;;;;;5155092;27;19907;-39
2022/11/07 08:47:35;;;;;;;;;;;12.40;99.90;;;;;;5155811;27;20268;-38
2022/11/07 08:50:01;;;;;;;;;;;12.50;99.90;;;;;;5155853;27;19907;-38
2022/11/07 08:52:26;;;;;;;;;;;12.50;99.90;;;;;;5154874;27;20369;-39
2022/11/07 08:54:52;;;;;;;;;;;12.60;99.90;;;;;;5155225;27;19972;-38
2022/11/07 08:57:17;;;;;;;;;;;12.60;99.90;;;;;;5155291;27;20361;-38
2022/11/07 08:59:42;;;;;;;;;;;12.60;99.90;;;;;;5153424;27;20339;-38
2022/11/07 09:02:10;;;;;;;;;;;12.60;99.90;;;;;;5155678;27;19915;-38
2022/11/07 09:04:35;;;;;;;;;;;12.60;99.90;;;;;;5155536;27;19911;-38
2022/11/07 09:07:01;;;;;;;;;;;12.70;99.90;;;;;;5153700;27;20368;-37
2022/11/07 09:09:27;;;;;;;;;;;12.70;99.90;;;;;;5155129;27;19930;-39
2022/11/07 09:11:53;;;;;;;;;;;12.80;99.90;;;;;;5155060;27;20384;-38
2022/11/07 09:14:18;;;;;;;;;;;12.80;99.90;;;;;;5154672;27;20009;-38
2022/11/07 09:16:44;;;;;;;;;;;12.80;99.90;;;;;;5155089;27;19923;-39
2022/11/07 09:19:09;;;;;;;;;;;12.80;99.90;;;;;;5153459;27;19915;-42
2022/11/07 09:21:35;;;;;;;;;;;12.80;99.90;;;;;;5154901;27;19911;-37
2022/11/07 09:24:00;;;;;;;;;;;12.70;99.90;;;;;;5154994;27;19921;-39
2022/11/07 09:26:25;;;;;;;;;;;12.70;99.90;;;;;;5154182;27;19907;-38
2022/11/07 09:28:51;;;;;;;;;;;12.70;99.90;;;;;;5153642;27;20272;-38
2022/11/07 09:31:17;;;;;;;;;;;12.60;99.90;;;;;;5154830;27;19911;-37
2022/11/07 09:33:42;;;;;;;;;;;12.70;99.90;;;;;;5154122;27;19913;-41
2022/11/07 09:36:08;;;;;;;;;;;12.70;99.90;;;;;;5154885;27;19915;-39
2022/11/07 09:38:33;;;;;;;;;;;12.60;99.90;;;;;;5154805;27;20006;-39
2022/11/07 09:41:03;;;;;;;;;;;12.60;99.90;;;;;;5153964;27;20064;-38
2022/11/07 09:43:47;;;;;;;;;;;12.60;99.90;;;;;;5154493;27;20239;-38
2022/11/07 09:46:26;;;;;;;;;;;12.50;99.90;;;;;;5154035;27;20370;-39
2022/11/07 09:48:56;;;;;;;;;;;12.60;99.90;;;;;;5153156;27;21435;-40
2022/11/07 09:51:33;;;;;;;;;;;12.60;99.90;;;;;;5154584;27;19946;-38
2022/11/07 09:54:00;;;;;;;;;;;12.70;99.90;;;;;;5154520;27;19907;-37
2022/11/07 09:56:27;;;;;;;;;;;12.80;99.90;;;;;;5153664;27;20388;-40
2022/11/07 09:58:55;;;;;;;;;;;12.90;99.90;;;;;;5154124;27;19954;-38
2022/11/07 10:01:21;;;;;;;;;;;13.00;99.90;;;;;;5152740;27;19907;-39
2022/11/07 10:03:46;;;;;;;;;;;13.00;99.90;;;;;;5154451;27;20322;-39
2022/11/07 10:06:27;;;;;;;;;;;13.10;99.90;;;;;;5154097;27;19930;-38
2022/11/07 10:08:59;;;;;;;;;;;13.10;99.90;;;;;;5153838;27;19911;-39
2022/11/07 10:11:24;;;;;;;;;;;13.20;99.90;;;;;;5153451;27;19972;-37
2022/11/07 10:13:52;;;;;;;;;;;13.20;99.90;;;;;;5154276;27;20277;-40
2022/11/07 10:16:27;;;;;;;;;;;13.10;99.90;;;;;;5153408;27;20388;-38
2022/11/07 10:18:52;;;;;;;;;;;13.10;99.90;;;;;;5154394;27;19913;-38
2022/11/07 10:21:21;;;;;;;;;;;13.10;99.90;;;;;;5154192;27;20322;-38
2022/11/07 10:24:09;;;;;;;;;;;13.10;99.90;;;;;;5153435;27;19913;-39
2022/11/07 10:26:35;;;;;;;;;;;13.00;99.90;;;;;;5153578;27;20018;-39
2022/11/07 10:29:08;;;;;;;;;;;13.10;99.90;;;;;;5153574;27;19912;-38
2022/11/07 10:31:43;;;;;;;;;;;13.10;99.90;;;;;;5153219;27;19911;-39
2022/11/07 10:34:21;;;;;;;;;;;13.20;99.90;;;;;;5154195;27;19907;-39
2022/11/07 10:36:46;;;;;;;;;;;13.30;99.90;;;;;;5153267;27;19915;-38
2022/11/07 10:39:16;;;;;;;;;;;13.30;99.90;;;;;;5154028;27;19915;-38
2022/11/07 10:41:50;;;;;;;;;;;13.50;99.90;;;;;;5153859;27;19997;-38
2022/11/07 10:44:21;;;;;;;;;;;13.50;99.90;;;;;;5153054;27;19925;-38
2022/11/07 10:46:46;;;;;;;;;;;13.60;99.90;;;;;;5154015;27;19926;-39
2022/11/07 10:49:17;;;;;;;;;;;13.60;99.90;;;;;;5154024;27;19914;-38
2022/11/07 10:51:42;;;;;;;;;;;13.60;99.90;;;;;;5152983;27;19907;-38
2022/11/07 10:54:28;;;;;;;;;;;13.70;99.90;;;;;;5153822;27;20012;-38
2022/11/07 10:57:02;;;;;;;;;;;13.70;99.90;;;;;;5153493;27;19915;-40
2022/11/07 10:59:28;;;;;;;;;;;13.80;99.90;;;;;;5152436;27;19914;-38
2022/11/07 11:01:55;;;;;;;;;;;13.80;99.90;;;;;;5153503;27;19918;-39
2022/11/07 11:04:25;;;;;;;;;;;13.80;99.90;;;;;;5153727;27;19908;-38
2022/11/07 11:07:02;;;;;;;;;;;13.90;99.90;;;;;;5153375;27;20343;-38
2022/11/07 11:09:28;;;;;;;;;;;13.90;99.90;;;;;;5153948;27;20002;-38
2022/11/07 11:11:53;;;;;;;;;;;14.00;99.90;;;;;;5153291;27;20009;-38
2022/11/07 11:14:19;;;;;;;;;;;14.00;99.90;;;;;;5153744;27;20371;-41
2022/11/07 11:16:47;;;;;;;;;;;14.10;99.90;;;;;;5153675;27;19915;-41
2022/11/07 11:19:24;;;;;;;;;;;14.20;99.90;;;;;;5152734;27;19907;-38
2022/11/07 11:21:50;;;;;;;;;;;14.20;99.90;;;;;;5155464;27;19952;-38
2022/11/07 11:24:30;;;;;;;;;;;14.30;99.90;;;;;;5157374;27;19931;-40
2022/11/07 11:26:58;;;;;;;;;;;14.30;99.90;;;;;;5156632;27;19935;-39
2022/11/07 11:29:27;;;;;;;;;;;14.30;99.90;;;;;;5156002;27;19915;-40
2022/11/07 11:31:54;;;;;;;;;;;14.30;99.90;;;;;;5157001;27;19955;-38
2022/11/07 11:34:34;;;;;;;;;;;14.20;99.90;;;;;;5156184;27;19907;-38
2022/11/07 11:37:05;;;;;;;;;;;14.30;99.90;;;;;;5157099;27;19972;-38
2022/11/07 11:39:34;;;;;;;;;;;14.30;99.90;;;;;;5156982;27;19911;-39
2022/11/07 11:41:59;;;;;;;;;;;14.30;99.90;;;;;;5156137;27;19918;-39
2022/11/07 11:44:30;;;;;;;;;;;14.30;99.90;;;;;;5156078;27;19919;-43
2022/11/07 11:47:04;;;;;;;;;;;14.30;99.90;;;;;;5153954;27;19918;-39
2022/11/07 11:49:48;;;;;;;;;;;14.30;99.90;;;;;;5155196;27;19907;-39
2022/11/07 11:52:18;;;;;;;;;;;14.30;99.90;;;;;;5155244;27;19963;-41
2022/11/07 11:54:45;;;;;;;;;;;14.30;99.90;;;;;;5154928;27;19969;-40
2022/11/07 11:57:14;;;;;;;;;;;14.30;99.90;;;;;;5156513;27;19915;-39
2022/11/07 11:59:59;;;;;;;;;;;14.30;99.90;;;;;;5156742;27;19914;-37
2022/11/07 12:02:24;;;;;;;;;;;14.30;99.90;;;;;;5155811;27;19997;-38
2022/11/07 12:05:15;;;;;;;;;;;14.20;99.90;;;;;;5156660;27;19954;-38
2022/11/07 12:07:59;;;;;;;;;;;14.20;99.90;;;;;;5156554;27;20373;-38
2022/11/07 12:10:33;;;;;;;;;;;14.30;99.90;;;;;;5156412;27;20327;-37
2022/11/07 12:13:10;;;;;;;;;;;14.30;99.90;;;;;;5156558;27;19915;-39
2022/11/07 12:15:43;;;;;;;;;;;14.30;99.90;;;;;;5155568;27;19962;-40
2022/11/07 12:18:14;;;;;;;;;;;14.30;99.90;;;;;;5156360;27;19914;-39
2022/11/07 12:20:46;;;;;;;;;;;14.30;99.90;;;;;;5156166;27;19918;-40
2022/11/07 12:23:11;;;;;;;;;;;14.40;99.90;;;;;;5155136;27;19911;-40
2022/11/07 12:25:41;;;;;;;;;;;14.50;99.90;;;;;;5156338;27;20033;-42
2022/11/07 12:28:25;;;;;;;;;;;14.50;99.90;;;;;;5156142;27;19914;-39
2022/11/07 12:31:06;;;;;;;;;;;14.50;99.90;;;;;;5155388;27;19964;-38
2022/11/07 12:33:34;;;;;;;;;;;14.60;99.90;;;;;;5155219;27;20002;-39
2022/11/07 12:36:33;;;;;;;;;;;14.60;99.90;;;;;;5156003;27;19919;-39
2022/11/07 12:39:17;;;;;;;;;;;14.80;99.90;;;;;;5099389;27;20334;-39
2022/11/07 12:41:54;;;;;;;;;;;14.80;99.90;;;;;;5155939;27;19911;-39
2022/11/07 12:44:19;;;;;;;;;;;14.80;99.90;;;;;;5154642;27;20434;-39
2022/11/07 12:46:56;;;;;;;;;;;14.80;99.90;;;;;;5155644;27;19907;-42
2022/11/07 12:49:40;;;;;;;;;;;14.80;99.90;;;;;;5155589;27;19907;-41
2022/11/07 12:52:12;;;;;;;;;;;14.80;99.90;;;;;;5154883;27;19960;-40
2022/11/07 12:54:43;;;;;;;;;;;14.70;99.90;;;;;;5154909;27;20361;-38
2022/11/07 12:57:19;;;;;;;;;;;14.70;99.90;;;;;;5155395;27;19937;-39
2022/11/07 12:59:50;;;;;;;;;;;14.70;99.90;;;;;;5155478;27;19907;-38
2022/11/07 13:02:23;;;;;;;;;;;14.60;99.90;;;;;;5155424;27;19907;-41
2022/11/07 13:04:55;;;;;;;;;;;14.60;99.90;;;;;;5154858;27;19907;-39
2022/11/07 13:07:23;;;;;;;;;;;14.60;99.90;;;;;;5155196;27;19933;-40
2022/11/07 13:10:09;;;;;;;;;;;14.60;99.90;;;;;;5155439;27;19979;-39
2022/11/07 13:12:50;;;;;;;;;;;14.50;99.90;;;;;;5154466;27;19907;-39
2022/11/07 13:15:15;;;;;;;;;;;14.50;99.90;;;;;;5155061;27;20010;-42
2022/11/07 13:17:42;;;;;;;;;;;14.50;99.90;;;;;;5155164;27;19998;-42
2022/11/07 13:20:19;;;;;;;;;;;14.50;99.90;;;;;;5154678;27;20012;-40
2022/11/07 13:22:45;;;;;;;;;;;14.50;99.90;;;;;;5155609;27;19949;-38
2022/11/07 13:25:11;;;;;;;;;;;14.50;99.90;;;;;;5155504;27;20316;-41
2022/11/07 13:27:38;;;;;;;;;;;14.50;99.90;;;;;;5155276;27;19908;-40
2022/11/07 13:30:09;;;;;;;;;;;14.50;99.90;;;;;;5155798;27;20068;-40
2022/11/07 13:32:42;;;;;;;;;;;14.50;99.90;;;;;;5154960;27;20346;-39
2022/11/07 13:35:27;;;;;;;;;;;14.40;99.90;;;;;;5155639;27;19911;-43
2022/11/07 13:37:56;;;;;;;;;;;14.40;99.90;;;;;;5154622;27;19911;-39
2022/11/07 13:40:33;;;;;;;;;;;14.40;99.90;;;;;;5154970;27;19930;-39
2022/11/07 13:43:07;;;;;;;;;;;14.40;99.90;;;;;;5155115;27;20434;-39
2022/11/07 13:45:45;;;;;;;;;;;14.30;99.90;;;;;;5155022;27;19911;-39
2022/11/07 13:48:25;;;;;;;;;;;14.30;99.90;;;;;;5154922;27;19918;-38
2022/11/07 13:50:55;;;;;;;;;;;14.30;99.90;;;;;;5154829;27;19911;-41
2022/11/07 13:53:23;;;;;;;;;;;14.20;99.90;;;;;;5154263;27;19923;-40
2022/11/07 13:55:58;;;;;;;;;;;14.20;99.90;;;;;;5154662;27;19967;-38
2022/11/07 13:58:25;;;;;;;;;;;14.30;99.90;;;;;;5155077;27;19907;-38
2022/11/07 14:00:50;;;;;;;;;;;14.20;99.90;;;;;;5154738;27;19968;-39
2022/11/07 14:03:26;;;;;;;;;;;14.20;99.90;;;;;;5155190;27;19911;-40
2022/11/07 14:05:53;;;;;;;;;;;14.20;99.90;;;;;;5155129;27;19988;-42
2022/11/07 14:08:24;;;;;;;;;;;14.20;99.90;;;;;;5154651;27;19908;-39
2022/11/07 14:10:50;;;;;;;;;;;14.20;99.90;;;;;;5155087;27;19914;-44
2022/11/07 14:13:24;;;;;;;;;;;14.20;99.90;;;;;;5155103;27;19907;-45
2022/11/07 14:15:52;;;;;;;;;;;14.20;99.90;;;;;;5154045;27;20288;-39
2022/11/07 14:18:19;;;;;;;;;;;14.20;99.90;;;;;;5154751;27;19911;-40
2022/11/07 14:20:48;;;;;;;;;;;14.20;99.90;;;;;;5154988;27;19907;-41
2022/11/07 14:23:14;;;;;;;;;;;14.20;99.90;;;;;;5154002;27;19915;-42
2022/11/07 14:25:39;;;;;;;;;;;14.20;99.90;;;;;;5155108;27;19908;-39
2022/11/07 14:28:05;;;;;;;;;;;14.20;99.90;;;;;;5155014;27;20524;-40
2022/11/07 14:30:31;;;;;;;;;;;14.10;99.90;;;;;;5154073;27;19919;-39